createdAt,value
2024-02-21T00:00:18.330Z,9.55
2024-02-21T00:02:45.060Z,8.07
2024-02-21T00:05:11.768Z,9.48
2024-02-21T00:07:38.565Z,8.20
2024-02-21T00:10:05.803Z,9.38
2024-02-21T00:12:32.457Z,8.02
2024-02-21T00:14:59.259Z,8.35
2024-02-21T00:17:27.351Z,8.93
2024-02-21T00:19:54.264Z,8.88
2024-02-21T00:22:21.074Z,8.98
2024-02-21T00:24:47.835Z,8.30
2024-02-21T00:27:14.503Z,8.68
2024-02-21T00:29:41.154Z,8.55
2024-02-21T00:32:07.828Z,9.02
2024-02-21T00:34:34.739Z,8.88
2024-02-21T00:37:01.520Z,9.82
2024-02-21T00:39:28.211Z,9.07
2024-02-21T00:41:54.929Z,9.55
2024-02-21T00:44:21.688Z,10.13
2024-02-21T00:46:48.523Z,8.07
2024-02-21T00:49:15.292Z,9.30
2024-02-21T00:51:41.976Z,8.43
2024-02-21T00:54:08.719Z,9.25
2024-02-21T00:56:35.653Z,9.88
2024-02-21T00:59:02.379Z,7.97
2024-02-21T01:01:29.173Z,9.20
2024-02-21T01:03:56.028Z,9.73
2024-02-21T01:06:23.269Z,9.70
2024-02-21T01:08:50.384Z,10.07
2024-02-21T01:11:17.656Z,10.77
2024-02-21T01:13:44.964Z,8.50
2024-02-21T01:16:11.730Z,8.70
2024-02-21T01:18:40.679Z,10.50
2024-02-21T01:21:08.917Z,8.55
2024-02-21T01:23:36.751Z,10.27
2024-02-21T01:26:09.356Z,8.52
2024-02-21T01:28:36.726Z,10.23
2024-02-21T01:31:04.745Z,9.25
2024-02-21T01:33:35.795Z,9.90
2024-02-21T01:36:09.978Z,10.02
2024-02-21T01:38:36.891Z,9.77
2024-02-21T01:41:04.018Z,9.40
2024-02-21T01:43:30.772Z,8.07
2024-02-21T01:45:58.592Z,8.20
2024-02-21T01:48:26.442Z,8.23
2024-02-21T01:50:55.862Z,8.10
2024-02-21T01:53:31.943Z,8.68
2024-02-21T01:55:58.762Z,9.20
2024-02-21T01:58:26.322Z,9.27
2024-02-21T02:05:49.842Z,8.13
2024-02-21T02:08:18.007Z,7.30
2024-02-21T02:10:45.527Z,8.85
2024-02-21T02:13:12.602Z,7.82
2024-02-21T02:15:43.638Z,8.05
2024-02-21T02:18:11.886Z,8.65
2024-02-21T02:20:39.208Z,7.53
2024-02-21T02:23:12.442Z,7.80
2024-02-21T02:25:40.606Z,7.32
2024-02-21T02:28:08.205Z,7.82
2024-02-21T02:30:37.291Z,8.20
2024-02-21T02:33:05.986Z,7.28
2024-02-21T02:35:33.794Z,7.30
2024-02-21T02:38:00.563Z,7.43
2024-02-21T02:40:27.437Z,8.40
2024-02-21T02:42:56.118Z,9.52
2024-02-21T02:45:27.760Z,7.88
2024-02-21T02:47:58.643Z,7.88
2024-02-21T02:50:26.200Z,7.65
2024-02-21T02:52:54.050Z,7.82
2024-02-21T02:55:21.131Z,7.78
2024-02-21T02:57:48.262Z,7.53
2024-02-21T03:00:16.023Z,9.18
2024-02-21T03:02:48.336Z,8.10
2024-02-21T03:05:21.075Z,7.60
2024-02-21T03:07:49.292Z,7.88
2024-02-21T03:10:18.148Z,7.57
2024-02-21T03:12:45.468Z,6.43
2024-02-21T03:15:13.590Z,7.60
2024-02-21T03:17:41.431Z,7.15
2024-02-21T03:20:13.234Z,7.97
2024-02-21T03:22:42.002Z,7.88
2024-02-21T03:25:11.797Z,8.00
2024-02-21T03:27:38.795Z,7.32
2024-02-21T03:30:06.339Z,6.45
2024-02-21T03:32:33.198Z,7.05
2024-02-21T03:35:00.297Z,6.57
2024-02-21T03:37:27.139Z,7.43
2024-02-21T03:39:53.778Z,7.10
2024-02-21T03:42:20.493Z,7.55
2024-02-21T03:44:47.139Z,6.63
2024-02-21T03:47:13.817Z,7.30
2024-02-21T03:49:40.784Z,7.10
2024-02-21T03:52:07.880Z,7.72
2024-02-21T03:54:34.756Z,7.50
2024-02-21T03:57:01.446Z,6.60
2024-02-21T03:59:28.120Z,8.20
2024-02-21T04:01:55.098Z,6.25
2024-02-21T04:04:22.511Z,6.20
2024-02-21T04:06:50.927Z,6.68
2024-02-21T04:09:18.102Z,6.70
2024-02-21T04:11:44.992Z,7.22
2024-02-21T04:14:12.783Z,6.93
2024-02-21T04:16:40.649Z,6.68
2024-02-21T04:19:07.834Z,7.07
2024-02-21T04:21:34.723Z,6.50
2024-02-21T04:24:02.955Z,5.90
2024-02-21T04:26:29.742Z,6.25
2024-02-21T04:28:56.690Z,6.40
2024-02-21T04:31:23.604Z,6.50
2024-02-21T04:33:50.407Z,5.78
2024-02-21T04:36:17.092Z,6.10
2024-02-21T04:38:43.971Z,6.30
2024-02-21T04:41:10.823Z,6.60
2024-02-21T04:43:37.536Z,5.72
2024-02-21T04:46:05.430Z,7.93
2024-02-21T04:48:32.620Z,6.63
2024-02-21T04:50:59.269Z,6.18
2024-02-21T04:53:25.963Z,6.50
2024-02-21T04:55:52.701Z,6.63
2024-02-21T04:58:19.419Z,5.50
2024-02-21T05:00:46.156Z,6.57
2024-02-21T05:03:12.890Z,6.07
2024-02-21T05:05:39.787Z,5.72
2024-02-21T05:08:06.933Z,5.57
2024-02-21T05:10:33.738Z,5.80
2024-02-21T05:13:00.426Z,5.32
2024-02-21T05:15:27.068Z,5.88
2024-02-21T05:17:54.069Z,6.03
2024-02-21T05:20:21.139Z,6.93
2024-02-21T05:22:47.894Z,6.05
2024-02-21T05:25:14.907Z,6.55
2024-02-21T05:27:41.672Z,5.30
2024-02-21T05:30:08.959Z,6.30
2024-02-21T05:32:35.792Z,5.40
2024-02-21T05:35:02.956Z,5.22
2024-02-21T05:37:29.947Z,5.45
2024-02-21T05:39:56.651Z,5.45
2024-02-21T05:42:23.339Z,6.57
2024-02-21T05:44:50.139Z,6.35
2024-02-21T05:47:17.029Z,6.10
2024-02-21T05:49:43.958Z,4.82
2024-02-21T05:52:10.857Z,6.07
2024-02-21T05:54:40.878Z,5.15
2024-02-21T05:57:09.474Z,5.47
2024-02-21T05:59:37.594Z,4.82
2024-02-21T06:02:05.344Z,6.00
2024-02-21T06:04:32.356Z,4.95
2024-02-21T06:06:59.252Z,4.82
2024-02-21T06:09:26.026Z,5.55
2024-02-21T06:11:52.822Z,5.90
2024-02-21T06:14:20.843Z,5.30
2024-02-21T06:16:47.856Z,5.65
2024-02-21T06:19:14.817Z,5.95
2024-02-21T06:21:41.630Z,6.03
2024-02-21T06:24:08.499Z,6.80
2024-02-21T06:26:35.190Z,4.65
2024-02-21T06:29:02.838Z,5.07
2024-02-21T06:31:30.720Z,5.55
2024-02-21T06:33:57.718Z,4.50
2024-02-21T06:36:24.718Z,4.63
2024-02-21T06:38:51.519Z,6.35
2024-02-21T06:41:22.570Z,5.13
2024-02-21T06:43:50.265Z,6.00
2024-02-21T06:46:30.737Z,5.57
2024-02-21T06:48:58.402Z,5.75
2024-02-21T06:51:26.147Z,5.72
2024-02-21T06:53:53.379Z,4.95
2024-02-21T06:56:20.306Z,5.55
2024-02-21T06:58:47.459Z,5.07
2024-02-21T07:01:14.233Z,5.80
2024-02-21T07:03:41.022Z,5.60
2024-02-21T07:06:08.030Z,5.30
2024-02-21T07:08:34.826Z,5.00
2024-02-21T07:11:01.629Z,5.47
2024-02-21T07:13:28.370Z,5.18
2024-02-21T07:15:55.065Z,6.25
2024-02-21T07:18:22.018Z,4.85
2024-02-21T07:20:48.893Z,4.70
2024-02-21T07:23:15.566Z,4.65
2024-02-21T07:25:42.316Z,6.68
2024-02-21T07:28:09.310Z,4.38
2024-02-21T07:30:36.422Z,4.65
2024-02-21T07:33:03.707Z,4.20
2024-02-21T07:35:30.595Z,3.75
2024-02-21T07:37:57.356Z,4.32
2024-02-21T07:40:24.288Z,4.28
2024-02-21T07:42:52.233Z,4.40
2024-02-21T07:45:19.934Z,3.65
2024-02-21T07:47:47.019Z,4.22
2024-02-21T07:50:13.986Z,4.35
2024-02-21T07:52:40.757Z,4.63
2024-02-21T07:55:07.989Z,4.20
2024-02-21T07:57:34.785Z,4.30
2024-02-21T08:00:01.535Z,3.90
2024-02-21T08:02:28.348Z,4.78
2024-02-21T08:04:55.121Z,4.05
2024-02-21T08:07:21.866Z,3.92
2024-02-21T08:09:48.627Z,3.70
2024-02-21T08:12:15.310Z,3.42
2024-02-21T08:14:42.030Z,3.30
2024-02-21T08:17:08.930Z,3.65
2024-02-21T08:19:35.834Z,3.92
2024-02-21T08:22:02.756Z,4.55
2024-02-21T08:24:29.452Z,3.97
2024-02-21T08:26:56.193Z,4.13
2024-02-21T08:29:22.884Z,5.43
2024-02-21T08:31:49.912Z,6.05
2024-02-21T08:34:17.179Z,4.65
2024-02-21T08:36:44.301Z,5.10
2024-02-21T08:39:11.247Z,4.60
2024-02-21T08:41:50.907Z,4.65
2024-02-21T08:44:27.234Z,4.53
2024-02-21T08:46:54.435Z,4.50
2024-02-21T08:49:21.377Z,4.70
2024-02-21T08:51:48.379Z,4.03
2024-02-21T08:54:15.177Z,4.88
2024-02-21T08:56:41.875Z,4.18
2024-02-21T08:59:08.643Z,4.57
2024-02-21T09:01:36.492Z,4.40
2024-02-21T09:04:04.055Z,4.25
2024-02-21T09:06:31.240Z,4.00
2024-02-21T09:08:59.332Z,4.35
2024-02-21T09:11:26.360Z,2.80
2024-02-21T09:13:53.162Z,4.60
2024-02-21T09:16:19.981Z,4.32
2024-02-21T09:18:47.753Z,4.32
2024-02-21T09:21:14.545Z,5.68
2024-02-21T09:23:41.225Z,6.47
2024-02-21T09:26:09.132Z,6.15
2024-02-21T09:28:36.048Z,6.35
2024-02-21T09:31:03.168Z,5.47
2024-02-21T09:33:32.581Z,3.92
2024-02-21T09:36:00.069Z,3.90
2024-02-21T09:38:27.001Z,4.13
2024-02-21T09:41:08.614Z,3.25
2024-02-21T09:43:36.350Z,3.75
2024-02-21T09:46:03.713Z,3.30
2024-02-21T09:49:19.582Z,3.47
2024-02-21T09:51:48.859Z,5.63
2024-02-21T09:54:17.084Z,4.43
2024-02-21T09:56:48.157Z,4.63
2024-02-21T09:59:17.366Z,3.63
2024-02-21T10:01:45.594Z,4.45
2024-02-21T10:04:12.704Z,3.80
2024-02-21T10:06:40.193Z,3.03
2024-02-21T10:09:08.253Z,3.30
2024-02-21T10:11:38.279Z,2.90
2024-02-21T10:14:09.524Z,2.28
2024-02-21T10:16:38.439Z,3.03
2024-02-21T10:19:05.454Z,3.42
2024-02-21T10:21:32.292Z,3.67
2024-02-21T10:23:58.964Z,2.92
2024-02-21T10:26:25.679Z,2.70
2024-02-21T10:28:53.746Z,3.20
2024-02-21T10:31:29.359Z,3.20
2024-02-21T10:33:58.460Z,3.15
2024-02-21T10:36:26.251Z,2.30
2024-02-21T10:38:54.027Z,2.80
2024-02-21T10:41:23.444Z,2.75
2024-02-21T10:43:55.163Z,3.45
2024-02-21T10:46:24.207Z,2.53
2024-02-21T10:49:14.064Z,2.47
2024-02-21T10:51:45.161Z,2.80
2024-02-21T10:55:30.475Z,2.97
2024-02-21T10:57:58.577Z,3.05
2024-02-21T11:00:31.164Z,2.60
2024-02-21T11:03:00.350Z,3.17
2024-02-21T11:05:28.964Z,2.60
2024-02-21T11:07:56.406Z,3.38
2024-02-21T11:10:27.508Z,2.88
2024-02-21T11:13:15.543Z,3.25
2024-02-21T11:15:42.644Z,2.42
2024-02-21T11:18:09.445Z,2.58
2024-02-21T11:20:38.337Z,3.03
2024-02-21T11:23:06.366Z,2.97
2024-02-21T11:25:34.647Z,2.90
2024-02-21T11:28:03.917Z,3.17
2024-02-21T11:30:37.311Z,2.50
2024-02-21T11:33:07.167Z,2.50
2024-02-21T11:35:38.161Z,2.85
2024-02-21T11:38:18.277Z,3.28
2024-02-21T11:40:48.022Z,2.55
2024-02-21T11:43:16.319Z,2.88
2024-02-21T11:45:43.021Z,3.00
2024-02-21T11:48:09.881Z,3.35
2024-02-21T11:50:37.932Z,3.35
2024-02-21T11:53:04.929Z,2.38
2024-02-21T11:55:31.788Z,2.80
2024-02-21T11:57:58.789Z,2.47
2024-02-21T12:00:27.052Z,2.47
2024-02-21T12:02:53.851Z,3.03
2024-02-21T12:05:21.465Z,3.13
2024-02-21T12:07:48.545Z,2.75
2024-02-21T12:10:15.457Z,3.22
2024-02-21T12:12:42.158Z,3.10
2024-02-21T12:15:09.775Z,2.47
2024-02-21T12:17:41.548Z,2.08
2024-02-21T12:20:10.629Z,2.38
2024-02-21T12:22:39.249Z,2.58
2024-02-21T12:25:20.842Z,2.78
2024-02-21T12:27:48.328Z,2.70
2024-02-21T12:30:15.223Z,2.72
2024-02-21T12:32:42.530Z,3.08
2024-02-21T12:35:09.892Z,1.60
2024-02-21T12:37:39.722Z,2.05
2024-02-21T12:40:11.715Z,2.60
2024-02-21T12:42:38.490Z,2.13
2024-02-21T12:45:06.060Z,2.38
2024-02-21T12:47:32.854Z,2.58
2024-02-21T12:49:59.749Z,2.38
2024-02-21T12:52:26.906Z,2.92
2024-02-21T12:54:56.144Z,2.42
2024-02-21T12:57:24.051Z,2.30
2024-02-21T12:59:52.064Z,2.50
2024-02-21T13:02:18.946Z,2.17
2024-02-21T13:04:46.650Z,2.67
2024-02-21T13:07:13.428Z,2.42
2024-02-21T13:09:41.558Z,2.38
2024-02-21T13:12:08.993Z,2.30
2024-02-21T13:14:36.323Z,2.05
2024-02-21T13:17:03.078Z,3.55
2024-02-21T13:19:30.005Z,2.40
2024-02-21T13:21:56.846Z,2.38
2024-02-21T13:24:23.515Z,2.60
2024-02-21T13:26:50.247Z,2.55
2024-02-21T13:29:16.971Z,2.10
2024-02-21T13:31:45.224Z,2.70
2024-02-21T13:34:12.669Z,2.20
2024-02-21T13:36:39.567Z,2.28
2024-02-21T13:39:06.301Z,2.60
2024-02-21T13:41:34.650Z,3.88
2024-02-21T13:44:01.627Z,2.60
2024-02-21T13:46:28.650Z,3.63
2024-02-21T13:49:06.364Z,3.28
2024-02-21T13:51:37.188Z,2.45
2024-02-21T13:54:05.534Z,2.65
2024-02-21T13:56:34.567Z,2.60
2024-02-21T13:59:02.005Z,2.28
2024-02-21T14:01:33.514Z,3.13
2024-02-21T14:04:00.532Z,3.10
2024-02-21T14:06:27.438Z,2.90
2024-02-21T14:08:54.114Z,2.55
2024-02-21T14:11:20.835Z,2.60
2024-02-21T14:13:47.599Z,3.92
2024-02-21T14:16:14.526Z,3.03
2024-02-21T14:18:43.348Z,2.70
2024-02-21T14:21:13.971Z,2.28
2024-02-21T14:23:40.740Z,2.35
2024-02-21T14:26:07.718Z,2.67
2024-02-21T14:28:34.899Z,3.05
2024-02-21T14:31:01.862Z,2.30
2024-02-21T14:33:28.724Z,2.30
2024-02-21T14:35:55.668Z,2.03
2024-02-21T14:38:22.395Z,3.13
2024-02-21T14:40:49.673Z,2.58
2024-02-21T14:43:16.609Z,2.10
2024-02-21T14:45:43.959Z,2.30
2024-02-21T14:48:10.886Z,2.10
2024-02-21T14:50:37.678Z,2.50
2024-02-21T14:53:04.713Z,2.60
2024-02-21T14:55:31.609Z,3.05
2024-02-21T14:57:58.436Z,2.80
2024-02-21T15:00:30.895Z,2.20
2024-02-21T15:03:01.215Z,2.30
2024-02-21T15:05:29.198Z,3.85
2024-02-21T15:07:59.039Z,2.42
2024-02-21T15:10:25.963Z,2.85
2024-02-21T15:12:52.688Z,2.05
2024-02-21T15:15:19.578Z,2.30
2024-02-21T15:17:46.259Z,3.10
2024-02-21T15:20:13.477Z,2.22
2024-02-21T15:22:40.321Z,3.67
2024-02-21T15:25:14.349Z,2.53
2024-02-21T15:27:43.798Z,2.40
2024-02-21T15:30:15.391Z,3.05
2024-02-21T15:32:45.115Z,2.67
2024-02-21T15:35:12.388Z,2.60
2024-02-21T15:37:39.346Z,2.53
2024-02-21T15:40:09.392Z,2.33
2024-02-21T15:42:36.507Z,2.72
2024-02-21T15:45:05.916Z,2.90
2024-02-21T15:47:32.796Z,2.75
2024-02-21T15:50:01.813Z,3.38
2024-02-21T15:52:28.721Z,2.40
2024-02-21T15:54:55.475Z,2.70
2024-02-21T15:57:22.156Z,2.33
2024-02-21T15:59:50.905Z,1.92
2024-02-21T16:02:17.727Z,2.20
2024-02-21T16:04:44.595Z,2.47
2024-02-21T16:07:13.004Z,1.70
2024-02-21T16:09:44.847Z,1.73
2024-02-21T16:12:12.001Z,1.75
2024-02-21T16:14:38.927Z,2.28
2024-02-21T16:17:08.773Z,1.70
2024-02-21T16:19:35.800Z,1.85
2024-02-21T16:22:05.661Z,1.58
2024-02-21T16:24:32.455Z,1.70
2024-02-21T16:26:59.105Z,2.05
2024-02-21T16:29:25.942Z,1.52
2024-02-21T16:31:53.941Z,2.70
2024-02-21T16:34:20.834Z,1.48
2024-02-21T16:36:47.530Z,1.60
2024-02-21T16:39:15.179Z,1.63
2024-02-21T16:41:42.851Z,2.40
2024-02-21T16:44:09.757Z,2.95
2024-02-21T16:46:36.603Z,2.28
2024-02-21T16:49:03.453Z,2.40
2024-02-21T16:51:30.379Z,2.22
2024-02-21T16:53:57.158Z,2.80
2024-02-21T16:56:23.792Z,2.75
2024-02-21T16:58:50.480Z,2.63
2024-02-21T17:01:17.505Z,2.63
2024-02-21T17:03:44.681Z,2.58
2024-02-21T17:06:16.588Z,2.42
2024-02-21T17:08:47.145Z,2.15
2024-02-21T17:11:14.518Z,2.33
2024-02-21T17:13:43.037Z,2.25
2024-02-21T17:16:11.608Z,2.42
2024-02-21T17:18:38.394Z,2.00
2024-02-21T17:21:05.541Z,2.17
2024-02-21T17:23:32.406Z,2.75
2024-02-21T17:25:59.254Z,2.17
2024-02-21T17:28:26.122Z,1.98
2024-02-21T17:30:52.824Z,2.45
2024-02-21T17:33:19.613Z,1.83
2024-02-21T17:35:49.122Z,2.08
2024-02-21T17:38:19.746Z,2.47
2024-02-21T17:40:47.218Z,2.55
2024-02-21T17:43:14.092Z,2.72
2024-02-21T17:45:41.012Z,3.22
2024-02-21T17:48:08.567Z,2.47
2024-02-21T17:50:35.511Z,2.85
2024-02-21T17:53:03.805Z,2.85
2024-02-21T17:55:30.906Z,4.30
2024-02-21T17:57:58.181Z,3.05
2024-02-21T18:00:25.835Z,3.97
2024-02-21T18:02:52.573Z,2.70
2024-02-21T18:05:19.337Z,2.78
2024-02-21T18:07:46.361Z,3.33
2024-02-21T18:10:13.454Z,3.10
2024-02-21T18:12:40.317Z,4.28
2024-02-21T18:15:08.315Z,3.90
2024-02-21T18:17:36.392Z,3.88
2024-02-21T18:20:05.055Z,3.20
2024-02-21T18:22:32.053Z,4.97
2024-02-21T18:24:58.822Z,4.40
2024-02-21T18:27:25.696Z,3.67
2024-02-21T18:29:52.428Z,3.78
2024-02-21T18:32:19.227Z,3.95
2024-02-21T18:34:48.394Z,3.88
2024-02-21T18:37:16.954Z,4.10
2024-02-21T18:39:43.693Z,4.28
2024-02-21T18:42:10.411Z,4.13
2024-02-21T18:44:38.025Z,4.32
2024-02-21T18:47:05.075Z,3.28
2024-02-21T18:49:36.540Z,4.47
2024-02-21T18:52:03.528Z,3.83
2024-02-21T18:54:30.277Z,4.10
2024-02-21T18:56:57.679Z,4.32
2024-02-21T18:59:25.820Z,4.10
2024-02-21T19:01:52.543Z,4.75
2024-02-21T19:04:19.301Z,4.38
2024-02-21T19:06:46.258Z,5.00
2024-02-21T19:09:13.004Z,6.25
2024-02-21T19:11:39.754Z,4.88
2024-02-21T19:14:06.647Z,3.65
2024-02-21T19:16:33.557Z,4.45
2024-02-21T19:19:00.320Z,4.93
2024-02-21T19:21:27.056Z,4.25
2024-02-21T19:23:54.249Z,3.65
2024-02-21T19:26:20.996Z,4.45
2024-02-21T19:28:49.006Z,4.30
2024-02-21T19:31:15.968Z,4.85
2024-02-21T19:33:42.661Z,3.95
2024-02-21T19:36:12.652Z,3.88
2024-02-21T19:38:39.665Z,4.07
2024-02-21T19:41:09.335Z,3.53
2024-02-21T19:43:36.267Z,4.07
2024-02-21T19:46:03.322Z,3.22
2024-02-21T19:48:30.382Z,3.88
2024-02-21T19:50:57.993Z,4.28
2024-02-21T19:53:24.832Z,4.35
2024-02-21T19:55:52.087Z,4.50
2024-02-21T19:58:19.236Z,4.45
2024-02-21T20:00:46.152Z,3.83
2024-02-21T20:03:12.985Z,4.03
2024-02-21T20:05:43.813Z,3.83
2024-02-21T20:08:12.564Z,4.25
2024-02-21T20:10:39.509Z,3.22
2024-02-21T20:13:06.232Z,4.15
2024-02-21T20:15:33.649Z,3.22
2024-02-21T20:18:00.559Z,2.33
2024-02-21T20:20:28.739Z,1.70
2024-02-21T20:22:55.808Z,1.92
2024-02-21T20:25:22.638Z,1.83
2024-02-21T20:27:49.459Z,1.52
2024-02-21T20:30:16.530Z,1.40
2024-02-21T20:32:44.342Z,0.90
2024-02-21T20:35:11.968Z,1.48
2024-02-21T20:37:38.972Z,1.00
2024-02-21T20:40:09.894Z,0.80
2024-02-21T20:42:36.774Z,0.00
2024-02-21T20:45:03.696Z,0.00
2024-02-21T20:47:30.885Z,0.00
2024-02-21T20:49:59.539Z,0.00
2024-02-21T20:52:27.401Z,0.00
2024-02-21T20:54:54.240Z,0.00
2024-02-21T20:57:22.218Z,0.00
2024-02-21T20:59:48.924Z,0.00
2024-02-21T21:02:15.878Z,0.00
2024-02-21T21:04:42.695Z,0.00
2024-02-21T21:07:09.713Z,0.00
2024-02-21T21:09:39.014Z,0.00
2024-02-21T21:12:07.548Z,0.00
2024-02-21T21:14:34.490Z,0.00
2024-02-21T21:17:04.493Z,0.00
2024-02-21T21:19:31.575Z,0.00
2024-02-21T21:22:00.000Z,0.00
2024-02-21T21:24:27.392Z,0.32
2024-02-21T21:26:54.245Z,0.00
2024-02-21T21:29:20.949Z,0.00
2024-02-21T21:31:48.491Z,0.00
2024-02-21T21:34:16.039Z,0.15
2024-02-21T21:36:42.953Z,0.00
2024-02-21T21:39:09.852Z,0.00
2024-02-21T21:41:36.525Z,0.00
2024-02-21T21:44:03.338Z,0.00
2024-02-21T21:46:30.324Z,0.00
2024-02-21T21:48:57.105Z,0.00
2024-02-21T21:51:28.515Z,0.00
2024-02-21T21:53:55.307Z,0.00
2024-02-21T21:56:22.120Z,0.00
2024-02-21T21:58:50.055Z,0.00
2024-02-21T22:01:16.930Z,0.00
2024-02-21T22:03:44.473Z,0.00
2024-02-21T22:06:13.910Z,0.00
2024-02-21T22:08:44.306Z,0.00
2024-02-21T22:11:15.048Z,0.00
2024-02-21T22:13:42.113Z,0.00
2024-02-21T22:16:09.914Z,0.00
2024-02-21T22:18:37.011Z,0.00
2024-02-21T22:21:03.903Z,0.00
2024-02-21T22:23:30.603Z,0.00
2024-02-21T22:25:57.363Z,0.00
2024-02-21T22:28:24.267Z,0.00
2024-02-21T22:30:51.326Z,0.00
2024-02-21T22:33:18.124Z,0.00
2024-02-21T22:35:44.879Z,0.00
2024-02-21T22:38:11.719Z,0.00
2024-02-21T22:40:38.462Z,0.00
2024-02-21T22:43:06.030Z,0.00
2024-02-21T22:45:32.707Z,0.00
2024-02-21T22:47:59.490Z,0.00
2024-02-21T22:50:26.295Z,0.00
2024-02-21T22:52:53.140Z,0.00
2024-02-21T22:55:19.945Z,0.00
2024-02-21T22:57:46.733Z,0.00
2024-02-21T23:00:16.673Z,0.00
2024-02-21T23:02:44.072Z,0.98
2024-02-21T23:05:10.916Z,0.00
2024-02-21T23:07:38.047Z,0.00
2024-02-21T23:10:05.859Z,0.00
2024-02-21T23:12:35.447Z,0.00
2024-02-21T23:15:03.312Z,0.00
2024-02-21T23:17:29.995Z,0.00
2024-02-21T23:19:56.799Z,0.13
2024-02-21T23:22:23.612Z,0.00
2024-02-21T23:24:50.346Z,0.00
2024-02-21T23:27:17.091Z,0.52
2024-02-21T23:29:45.116Z,0.00
2024-02-21T23:32:13.480Z,0.00
2024-02-21T23:34:40.250Z,0.00
2024-02-21T23:37:07.772Z,0.00
2024-02-21T23:39:34.581Z,0.05
2024-02-21T23:42:01.902Z,0.00
2024-02-21T23:44:28.753Z,0.00
2024-02-21T23:46:55.534Z,0.00
2024-02-21T23:49:24.351Z,0.00
2024-02-21T23:51:56.655Z,0.00
2024-02-21T23:54:23.459Z,0.00
2024-02-21T23:56:50.349Z,0.00
2024-02-21T23:59:17.049Z,0.00
